Wilmington, North Carolina
Current Conditions -  °F | °C
As of 8:53 AM on Thursday 30 Oct 2014 (Local Time) from KILM Reporting Station
Overcast Overcast  
Wind Chill: 59°   Ceiling: 1300
Heat Index: 59°   Visibility: 10mi
Dew Point: 56°   Wind: 15mph
Humidity: 90%   Direction: 30°NNE
Pressure: 30"   Gusts: NA
Location:  34.24°N, 77.94°W
Report Text: KILM 301253Z 03013KT 10SM SCT008 OVC013 15/13 A3000 RMK AO2 SLP158 T01500133
Loading
Personal Weather Stations






























Interactive Weather Map
Tropical Storm Tracking
New forecast layout! Learn more

10-Day Weather Forecast

Advertisements
Track Severe Weather on mobile